createdAt,value
2023-11-13T00:05:45.123Z,22.8
2023-11-13T00:11:37.012Z,22.7
2023-11-13T00:17:29.111Z,22.7
2023-11-13T00:23:21.477Z,23.5
2023-11-13T00:29:12.608Z,23.4
2023-11-13T00:35:05.548Z,23.1
2023-11-13T00:40:59.213Z,22.9
2023-11-13T00:46:52.876Z,22.8
2023-11-13T00:52:45.122Z,22.8
2023-11-13T00:58:36.865Z,22.7
2023-11-13T01:04:30.012Z,23.3
2023-11-13T01:10:22.581Z,23.4
2023-11-13T01:16:13.897Z,23.1
2023-11-13T01:22:05.373Z,22.9
2023-11-13T01:28:00.841Z,22.8
2023-11-13T01:33:53.082Z,22.8
2023-11-13T01:39:44.536Z,22.6
2023-11-13T01:45:36.545Z,22.9
2023-11-13T01:51:28.892Z,23.5
2023-11-13T01:57:20.840Z,23.2
2023-11-13T02:03:12.847Z,23
2023-11-13T02:09:04.513Z,22.9
2023-11-13T02:14:56.310Z,22.8
2023-11-13T02:20:33.186Z,22.7
2023-11-13T02:26:25.034Z,22.8
2023-11-13T02:32:16.613Z,23.6
2023-11-13T02:38:08.646Z,23.3
2023-11-13T02:43:59.811Z,23.1
2023-11-13T02:49:51.467Z,22.9
2023-11-13T02:55:44.524Z,22.8
2023-11-13T03:01:36.406Z,22.8
2023-11-13T03:07:28.413Z,22.7
2023-11-13T03:13:19.963Z,23.6
2023-11-13T03:18:56.173Z,23.4
2023-11-13T03:24:32.391Z,23.1
2023-11-13T03:30:24.462Z,23
2023-11-13T03:36:16.842Z,22.9
2023-11-13T03:41:53.265Z,22.8
2023-11-13T03:47:45.863Z,22.7
2023-11-13T03:53:37.436Z,23.3
2023-11-13T03:59:29.733Z,23.5
2023-11-13T04:05:22.993Z,23.2
2023-11-13T04:11:14.138Z,23
2023-11-13T04:17:05.806Z,22.9
2023-11-13T04:22:42.400Z,22.8
2023-11-13T04:28:19.263Z,22.7
2023-11-13T04:33:59.238Z,22.9
2023-11-13T04:39:51.767Z,23.6
2023-11-13T04:45:43.579Z,23.3
2023-11-13T04:51:35.140Z,23.1
2023-11-13T04:57:27.060Z,22.9
2023-11-13T05:03:23.192Z,22.8
2023-11-13T05:09:15.622Z,22.7
2023-11-13T05:15:07.546Z,22.7
2023-11-13T05:21:02.321Z,23.4
2023-11-13T05:26:54.318Z,23.3
2023-11-13T05:32:47.087Z,22.9
2023-11-13T05:38:38.614Z,22.8
2023-11-13T05:44:30.053Z,22.6
2023-11-13T05:50:25.374Z,22.5
2023-11-13T05:56:17.791Z,22.6
2023-11-13T06:02:10.045Z,23.3
2023-11-13T06:08:03.002Z,23.3
2023-11-13T06:13:57.409Z,22.9
2023-11-13T06:19:33.494Z,22.7
2023-11-13T06:25:25.042Z,22.6
2023-11-13T06:31:21.350Z,22.4
2023-11-13T06:37:14.863Z,22.6
2023-11-13T06:42:51.792Z,23.1
2023-11-13T06:48:44.666Z,23.3
2023-11-13T06:54:36.792Z,22.9
2023-11-13T07:00:28.928Z,22.8
2023-11-13T07:06:22.019Z,22.5
2023-11-13T07:11:57.646Z,22.4
2023-11-13T07:17:53.754Z,22.5
2023-11-13T07:23:45.928Z,23.1
2023-11-13T07:29:37.882Z,23.3
2023-11-13T07:35:30.880Z,23
2023-11-13T07:41:23.294Z,22.8
2023-11-13T07:47:16.438Z,22.6
2023-11-13T07:53:25.928Z,22.5
2023-11-13T07:59:19.376Z,22.5
2023-11-13T08:05:11.333Z,23
2023-11-13T08:11:12.194Z,23.3
2023-11-13T08:17:04.657Z,22.9
2023-11-13T08:22:55.596Z,22.7
2023-11-13T08:28:49.671Z,22.6
2023-11-13T08:34:44.590Z,22.4
2023-11-13T08:40:36.084Z,22.6
2023-11-13T08:46:39.819Z,23.2
2023-11-13T08:52:36.404Z,23.3
2023-11-13T08:58:28.323Z,22.9
2023-11-13T09:04:07.261Z,22.7
2023-11-13T09:10:02.444Z,22.6
2023-11-13T09:15:39.190Z,22.5
2023-11-13T09:21:31.633Z,22.8
2023-11-13T09:27:23.943Z,23.4
2023-11-13T09:33:15.284Z,23.3
2023-11-13T09:39:07.407Z,23
2023-11-13T09:45:12.773Z,22.8
2023-11-13T09:51:07.419Z,22.6
2023-11-13T09:57:06.181Z,22.6
2023-11-13T10:02:59.686Z,22.9
2023-11-13T10:08:55.685Z,23.5
2023-11-13T10:14:32.079Z,23.3
2023-11-13T10:20:28.525Z,22.9
2023-11-13T10:26:20.216Z,22.8
2023-11-13T10:32:00.740Z,22.6
2023-11-13T10:37:56.394Z,22.6
2023-11-13T10:43:53.896Z,22.9
2023-11-13T10:49:49.502Z,23.5
2023-11-13T10:55:26.812Z,23.3
2023-11-13T11:01:21.360Z,22.9
2023-11-13T11:07:17.790Z,22.8
2023-11-13T11:13:15.314Z,22.6
2023-11-13T11:19:13.141Z,22.5
2023-11-13T11:25:06.207Z,22.8
2023-11-13T11:31:10.219Z,23.5
2023-11-13T11:36:47.115Z,23.3
2023-11-13T11:42:26.048Z,23
2023-11-13T11:48:31.359Z,22.8
2023-11-13T11:54:27.169Z,22.7
2023-11-13T12:00:18.187Z,22.6
2023-11-13T12:06:13.143Z,22.5
2023-11-13T12:11:50.061Z,22.4
2023-11-13T12:17:42.243Z,22.7
2023-11-13T12:23:48.550Z,23.2
2023-11-13T12:29:39.280Z,23
2023-11-13T12:35:32.193Z,22.7
2023-11-13T12:41:09.325Z,22.6
2023-11-13T12:47:05.350Z,22.5
2023-11-13T12:52:59.727Z,22.4
2023-11-13T12:58:52.298Z,22.3
2023-11-13T13:04:44.603Z,22.3
2023-11-13T13:10:41.229Z,22.9
2023-11-13T13:16:50.820Z,23.1
2023-11-13T13:22:44.079Z,22.8
2023-11-13T13:28:37.422Z,22.6
2023-11-13T13:34:31.045Z,22.5
2023-11-13T13:40:22.268Z,22.4
2023-11-13T13:46:13.997Z,22.3
2023-11-13T13:52:06.899Z,22.3
2023-11-13T13:58:05.127Z,22.7
2023-11-13T14:04:09.487Z,23.1
2023-11-13T14:10:01.707Z,22.9
2023-11-13T14:16:16.404Z,22.6
2023-11-13T14:22:08.910Z,22.6
2023-11-13T14:28:05.093Z,22.4
2023-11-13T14:33:25.890Z,22.4
2023-11-13T14:39:03.129Z,22.3
2023-11-13T14:44:57.413Z,22.3
2023-11-13T14:50:56.269Z,22.6
2023-11-13T14:56:49.625Z,23
2023-11-13T15:02:43.256Z,22.8
2023-11-13T15:08:36.345Z,22.5
2023-11-13T15:14:27.319Z,22.4
2023-11-13T15:20:29.094Z,22.4
2023-11-13T15:26:45.637Z,22.3
2023-11-13T15:32:39.539Z,22.2
2023-11-13T15:38:40.387Z,22.1
2023-11-13T15:44:32.467Z,22.3
2023-11-13T15:50:09.486Z,22.6
2023-11-13T15:55:46.736Z,22.7
2023-11-13T16:01:38.912Z,22.4
2023-11-13T16:07:35.547Z,22.3
2023-11-13T16:13:28.263Z,22.2
2023-11-13T16:19:06.311Z,22.1
2023-11-13T16:25:00.831Z,22.1
2023-11-13T16:30:53.168Z,22
2023-11-13T16:36:44.547Z,21.9
2023-11-13T16:42:20.301Z,22.1
2023-11-13T16:48:13.376Z,22.5
2023-11-13T16:54:07.058Z,22.4
2023-11-13T17:00:02.763Z,22.3
2023-11-13T17:05:56.150Z,22.1
2023-11-13T17:11:34.404Z,22
2023-11-13T17:17:26.768Z,22
2023-11-13T17:23:22.857Z,21.9
2023-11-13T17:29:01.865Z,21.9
2023-11-13T17:34:56.541Z,21.8
2023-11-13T17:40:33.302Z,22
2023-11-13T17:46:09.430Z,22.4
2023-11-13T17:52:01.419Z,22.4
2023-11-13T17:57:53.030Z,22.2
2023-11-13T18:03:49.279Z,22.1
2023-11-13T18:09:28.291Z,21.9
2023-11-13T18:15:20.374Z,21.9
2023-11-13T18:21:11.521Z,21.9
2023-11-13T18:26:50.102Z,21.8
2023-11-13T18:32:34.964Z,21.8
2023-11-13T18:38:27.085Z,21.9
2023-11-13T18:44:22.196Z,22.4
2023-11-13T18:50:14.701Z,22.4
2023-11-13T18:56:05.922Z,22.1
2023-11-13T19:01:59.414Z,22
2023-11-13T19:07:37.115Z,21.9
2023-11-13T19:13:34.679Z,21.9
2023-11-13T19:19:26.700Z,21.8
2023-11-13T19:25:19.336Z,21.8
2023-11-13T19:30:40.371Z,21.7
2023-11-13T19:36:16.677Z,21.9
2023-11-13T19:41:53.410Z,22.4
2023-11-13T19:47:25.054Z,22.3
2023-11-13T19:53:27.635Z,22
2023-11-13T19:58:49.933Z,21.9
2023-11-13T20:04:14.917Z,21.9
2023-11-13T20:09:36.611Z,21.8
2023-11-13T20:15:13.657Z,21.8
2023-11-13T20:21:17.816Z,21.8
2023-11-13T20:26:40.807Z,21.6
2023-11-13T20:32:39.764Z,21.8
2023-11-13T20:38:19.424Z,22.3
2023-11-13T20:43:39.373Z,22.1
2023-11-13T20:49:33.642Z,21.9
2023-11-13T20:55:08.821Z,21.8
2023-11-13T21:00:29.705Z,21.8
2023-11-13T21:05:59.174Z,21.7
2023-11-13T21:11:58.659Z,21.7
2023-11-13T21:17:50.619Z,21.8
2023-11-13T21:23:13.136Z,22.1
2023-11-13T21:29:04.944Z,22.3
2023-11-13T21:34:42.079Z,22
2023-11-13T21:40:18.610Z,21.9
2023-11-13T21:46:10.734Z,21.8
2023-11-13T21:51:31.588Z,21.7
2023-11-13T21:57:24.092Z,21.7
2023-11-13T22:03:02.946Z,21.6
2023-11-13T22:08:23.860Z,21.6
2023-11-13T22:14:15.978Z,21.9
2023-11-13T22:19:53.757Z,22.8
2023-11-13T22:25:29.434Z,22.8
2023-11-13T22:31:06.373Z,22.5
2023-11-13T22:36:43.163Z,22.3
2023-11-13T22:42:18.802Z,22.1
2023-11-13T22:47:56.493Z,22
2023-11-13T22:53:33.258Z,22.1
2023-11-13T22:58:54.273Z,22.6
2023-11-13T23:04:31.927Z,23.2
2023-11-13T23:10:08.569Z,22.9
2023-11-13T23:15:44.509Z,22.6
2023-11-13T23:21:21.684Z,22.4
2023-11-13T23:27:22.250Z,22.3
2023-11-13T23:32:58.546Z,22.2
2023-11-13T23:38:35.660Z,22.1
2023-11-13T23:44:12.420Z,22.1
2023-11-13T23:49:48.070Z,22.5
2023-11-13T23:55:24.784Z,23.3
